Time;durP1;ratioP1;P1;durP2;ratioP2;P2;SDS_P1;SDS_P2;PMS_P1;PMS_P2;Temp;Humidity;BMP_temperature;BMP_pressure;BME280_temperature;BME280_humidity;BME280_pressure;Samples;Min_cycle;Max_cycle;Signal;HPM_P1;HPM_P2
2023/06/26 00:01:42;;;;;;;12.10;9.77;;;22.10;99.90;;;;;;5072767;28;20107;-71
2023/06/26 00:04:14;;;;;;;15.07;10.60;;;22.10;99.90;;;;;;5072843;28;20024;-71
2023/06/26 00:06:40;;;;;;;13.48;10.75;;;22.10;99.90;;;;;;5073021;28;20382;-72
2023/06/26 00:09:06;;;;;;;15.25;9.60;;;22.00;99.90;;;;;;5072521;28;20037;-72
2023/06/26 00:11:33;;;;;;;12.52;10.38;;;22.00;99.90;;;;;;5072583;28;20482;-72
2023/06/26 00:14:00;;;;;;;13.50;10.20;;;22.00;99.90;;;;;;5071084;28;20075;-72
2023/06/26 00:16:26;;;;;;;13.90;10.00;;;22.00;99.90;;;;;;5073160;28;20115;-72
2023/06/26 00:18:52;;;;;;;13.48;10.27;;;22.10;99.90;;;;;;5068305;28;20020;-72
2023/06/26 00:21:19;;;;;;;12.95;10.35;;;22.10;99.90;;;;;;5072791;28;20034;-72
2023/06/26 00:23:44;;;;;;;13.68;10.63;;;22.10;99.90;;;;;;5072955;28;20517;-72
2023/06/26 00:26:10;;;;;;;12.23;10.68;;;22.10;99.90;;;;;;5072260;28;20025;-72
2023/06/26 00:28:36;;;;;;;12.93;10.57;;;22.00;99.90;;;;;;5072285;28;20021;-72
2023/06/26 00:31:01;;;;;;;15.15;9.98;;;22.00;99.90;;;;;;5071943;28;20036;-71
2023/06/26 00:33:27;;;;;;;12.25;10.68;;;22.00;99.90;;;;;;5072701;28;20378;-72
2023/06/26 00:35:52;;;;;;;14.85;11.85;;;22.00;99.90;;;;;;5071761;28;20024;-72
2023/06/26 00:38:18;;;;;;;14.55;11.85;;;22.10;99.90;;;;;;5071777;28;20021;-72
2023/06/26 00:40:43;;;;;;;16.92;11.88;;;22.10;99.90;;;;;;5072125;28;20393;-71
2023/06/26 00:43:09;;;;;;;14.18;11.27;;;22.20;99.90;;;;;;5071363;28;20020;-72
2023/06/26 00:45:35;;;;;;;15.00;11.13;;;22.20;99.90;;;;;;5072135;28;20481;-72
2023/06/26 00:48:01;;;;;;;11.80;9.13;;;22.20;99.90;;;;;;5071668;28;20378;-72
2023/06/26 00:50:27;;;;;;;11.65;8.13;;;22.30;99.90;;;;;;5072175;28;20089;-72
2023/06/26 00:52:56;;;;;;;11.40;8.30;;;22.30;99.90;;;;;;5071414;28;20024;-72
2023/06/26 00:55:22;;;;;;;9.95;7.90;;;22.40;99.90;;;;;;5072309;28;20056;-72
2023/06/26 00:57:48;;;;;;;8.60;7.75;;;22.40;99.90;;;;;;5071811;28;20513;-72
2023/06/26 01:00:14;;;;;;;9.70;8.23;;;22.40;99.90;;;;;;5071580;28;20029;-72
2023/06/26 01:02:40;;;;;;;10.13;8.48;;;22.40;99.90;;;;;;5071758;28;20047;-72
2023/06/26 01:05:06;;;;;;;9.23;7.55;;;22.40;99.90;;;;;;5071300;28;20025;-72
2023/06/26 01:07:36;;;;;;;9.00;8.07;;;22.40;99.90;;;;;;5071883;28;20028;-72
2023/06/26 01:10:03;;;;;;;10.85;7.25;;;22.40;99.90;;;;;;5071458;28;20051;-72
2023/06/26 01:12:30;;;;;;;8.95;8.05;;;22.40;99.90;;;;;;5071211;28;20059;-72
2023/06/26 01:14:55;;;;;;;8.77;7.63;;;22.30;99.90;;;;;;5071676;28;20101;-72
2023/06/26 01:17:23;;;;;;;14.07;8.02;;;22.30;99.90;;;;;;5064519;28;20052;-72
2023/06/26 01:19:49;;;;;;;10.70;9.40;;;22.30;99.90;;;;;;5051735;28;20025;-72
2023/06/26 01:22:44;;;;;;;9.23;8.32;;;22.30;99.90;;;;;;5061859;28;20147;-72
2023/06/26 01:25:28;;;;;;;10.73;9.00;;;22.30;99.90;;;;;;5065785;28;20040;-72
2023/06/26 01:27:55;;;;;;;13.07;8.52;;;22.20;99.90;;;;;;5071295;28;20066;-72
2023/06/26 01:30:22;;;;;;;9.27;8.27;;;22.20;99.90;;;;;;5071569;28;20028;-71
2023/06/26 01:32:49;;;;;;;9.65;8.32;;;22.10;99.90;;;;;;5071595;28;20032;-72
2023/06/26 01:35:15;;;;;;;10.05;8.40;;;22.10;99.90;;;;;;5071298;28;20393;-72
2023/06/26 01:37:41;;;;;;;10.93;7.32;;;22.20;99.90;;;;;;5071339;28;20389;-72
2023/06/26 01:40:07;;;;;;;9.50;7.15;;;22.20;99.90;;;;;;5070803;28;20099;-71
2023/06/26 01:42:33;;;;;;;12.57;6.97;;;22.20;99.90;;;;;;5071510;28;20040;-72
2023/06/26 01:45:07;;;;;;;11.73;7.10;;;22.20;99.90;;;;;;5070927;28;20024;-72
2023/06/26 01:47:36;;;;;;;9.52;6.55;;;22.10;99.90;;;;;;5071191;28;20112;-72
2023/06/26 01:50:16;;;;;;;10.18;6.43;;;22.10;99.90;;;;;;5070339;28;20471;-71
2023/06/26 01:52:49;;;;;;;8.02;5.90;;;22.10;99.90;;;;;;5070930;28;20060;-72
2023/06/26 01:55:39;;;;;;;8.20;5.70;;;22.00;99.90;;;;;;5071108;28;20032;-72
2023/06/26 01:58:06;;;;;;;7.78;5.60;;;21.90;99.90;;;;;;5070692;28;20041;-72
2023/06/26 02:00:33;;;;;;;7.88;5.30;;;21.80;99.90;;;;;;5071330;28;20050;-72
2023/06/26 02:02:58;;;;;;;7.80;4.55;;;21.80;99.90;;;;;;5070691;28;20487;-72
2023/06/26 02:05:24;;;;;;;6.50;4.30;;;21.70;99.90;;;;;;5071037;28;20104;-71
2023/06/26 02:07:51;;;;;;;6.78;4.60;;;21.60;99.90;;;;;;5071136;28;20433;-72
2023/06/26 02:10:17;;;;;;;11.32;4.35;;;21.50;99.90;;;;;;5070785;28;20470;-72
2023/06/26 02:12:42;;;;;;;8.07;4.20;;;21.50;99.90;;;;;;5071015;28;20056;-71
2023/06/26 02:15:08;;;;;;;7.25;4.85;;;21.40;99.90;;;;;;5070498;28;20067;-71
2023/06/26 02:17:34;;;;;;;8.07;4.10;;;21.40;99.90;;;;;;5050898;28;20040;-71
2023/06/26 02:19:59;;;;;;;12.00;4.43;;;21.30;99.90;;;;;;5070710;28;20043;-71
2023/06/26 02:22:25;;;;;;;6.90;4.10;;;21.30;99.90;;;;;;5071168;28;20027;-71
2023/06/26 02:24:50;;;;;;;7.18;4.30;;;21.20;99.90;;;;;;5070577;28;20541;-71
2023/06/26 02:27:16;;;;;;;8.25;4.22;;;21.10;99.90;;;;;;5070989;28;20096;-71
2023/06/26 02:29:41;;;;;;;7.30;4.10;;;21.10;99.90;;;;;;5070613;28;20052;-71
2023/06/26 02:32:08;;;;;;;7.30;4.80;;;21.00;99.90;;;;;;5070555;28;20032;-72
2023/06/26 02:34:34;;;;;;;9.73;4.45;;;20.90;99.90;;;;;;5070839;28;20036;-71
2023/06/26 02:37:00;;;;;;;8.13;3.97;;;20.90;99.90;;;;;;5070234;28;20020;-72
2023/06/26 02:39:26;;;;;;;8.38;4.15;;;20.80;99.90;;;;;;5071091;28;20024;-72
2023/06/26 02:41:52;;;;;;;8.02;3.33;;;20.70;99.90;;;;;;5070204;28;20036;-72
2023/06/26 02:44:17;;;;;;;10.75;3.80;;;20.70;99.90;;;;;;5070595;28;20025;-72
2023/06/26 02:46:43;;;;;;;7.13;3.15;;;20.70;99.90;;;;;;5071175;28;20402;-72
2023/06/26 02:49:08;;;;;;;9.30;3.58;;;20.60;99.90;;;;;;5070476;28;20423;-71
2023/06/26 02:51:34;;;;;;;10.32;3.35;;;20.50;99.90;;;;;;5070634;28;20111;-72
2023/06/26 02:54:00;;;;;;;6.20;3.00;;;20.50;99.90;;;;;;5070380;28;20425;-72
2023/06/26 02:56:29;;;;;;;5.85;3.17;;;20.40;99.90;;;;;;5070607;28;20584;-71
2023/06/26 02:58:55;;;;;;;6.10;3.20;;;20.40;99.90;;;;;;5070076;28;20032;-71
2023/06/26 03:01:21;;;;;;;5.97;3.00;;;20.40;99.90;;;;;;5072350;28;20048;-72
2023/06/26 03:03:47;;;;;;;10.38;3.42;;;20.30;99.90;;;;;;5074209;28;20032;-71
2023/06/26 03:06:13;;;;;;;5.93;2.55;;;20.30;99.90;;;;;;5073740;28;20383;-71
2023/06/26 03:08:39;;;;;;;9.90;3.08;;;20.20;99.90;;;;;;5073971;28;20544;-72
2023/06/26 03:11:05;;;;;;;6.50;2.85;;;20.20;99.90;;;;;;5073394;28;20068;-72
2023/06/26 03:13:32;;;;;;;9.35;3.13;;;20.20;99.90;;;;;;5073644;28;20027;-71
2023/06/26 03:15:58;;;;;;;6.72;3.35;;;20.10;99.90;;;;;;5054969;28;20037;-71
2023/06/26 03:18:23;;;;;;;10.73;4.05;;;20.10;99.90;;;;;;5061296;28;20367;-71
2023/06/26 03:20:49;;;;;;;10.93;3.58;;;20.10;99.90;;;;;;5073497;28;20116;-71
2023/06/26 03:23:15;;;;;;;7.95;4.22;;;20.00;99.90;;;;;;5073926;28;20033;-72
2023/06/26 03:25:40;;;;;;;9.45;3.50;;;20.00;99.90;;;;;;5073771;28;20044;-71
2023/06/26 03:28:06;;;;;;;9.35;4.03;;;19.90;99.90;;;;;;5073360;28;20021;-72
2023/06/26 03:30:31;;;;;;;10.25;3.40;;;19.90;99.90;;;;;;5073515;28;20062;-71
2023/06/26 03:32:57;;;;;;;15.13;4.28;;;19.80;99.90;;;;;;5072163;28;20059;-71
2023/06/26 03:35:23;;;;;;;10.30;3.55;;;19.90;99.90;;;;;;5073622;28;20025;-71
2023/06/26 03:37:49;;;;;;;9.98;3.30;;;19.80;99.90;;;;;;5073176;28;20553;-71
2023/06/26 03:40:15;;;;;;;10.18;3.85;;;19.80;99.90;;;;;;5073821;28;20085;-71
2023/06/26 03:42:42;;;;;;;10.75;3.90;;;19.80;99.90;;;;;;5073620;28;20437;-71
2023/06/26 03:45:08;;;;;;;14.25;3.70;;;19.70;99.90;;;;;;5072946;28;20853;-71
2023/06/26 03:47:34;;;;;;;12.57;3.83;;;19.80;99.90;;;;;;5073494;28;20055;-72
2023/06/26 03:49:59;;;;;;;13.05;4.07;;;19.70;99.90;;;;;;5073244;28;20044;-71
2023/06/26 03:52:25;;;;;;;11.80;4.07;;;19.70;99.90;;;;;;5073579;28;20068;-71
2023/06/26 03:54:50;;;;;;;10.77;3.40;;;19.70;99.90;;;;;;5073261;28;20028;-71
2023/06/26 03:57:16;;;;;;;12.10;4.35;;;19.60;99.90;;;;;;5073328;28;20402;-72
2023/06/26 03:59:41;;;;;;;10.38;3.70;;;19.70;99.90;;;;;;5073186;28;20028;-71
2023/06/26 04:02:07;;;;;;;13.32;4.60;;;19.60;99.90;;;;;;5072709;28;20129;-71
2023/06/26 04:04:33;;;;;;;11.35;4.13;;;19.70;99.90;;;;;;5072124;28;20040;-71
2023/06/26 04:06:59;;;;;;;14.18;4.38;;;19.70;99.90;;;;;;5072483;28;20107;-71
2023/06/26 04:09:25;;;;;;;14.82;4.53;;;19.70;99.90;;;;;;5072995;28;20056;-71
2023/06/26 04:11:51;;;;;;;16.75;5.05;;;19.70;99.90;;;;;;5072361;28;20478;-71
2023/06/26 04:14:16;;;;;;;16.50;4.90;;;19.70;99.90;;;;;;5072127;28;20082;-71
2023/06/26 04:16:42;;;;;;;18.33;5.47;;;19.70;99.90;;;;;;5072862;28;20028;-71
2023/06/26 04:19:09;;;;;;;15.73;5.53;;;19.70;99.90;;;;;;5055700;28;20486;-71
2023/06/26 04:21:35;;;;;;;12.50;4.38;;;19.70;99.90;;;;;;5066719;28;20059;-71
2023/06/26 04:24:00;;;;;;;14.20;5.40;;;19.70;99.90;;;;;;5072148;28;20048;-72
2023/06/26 04:26:27;;;;;;;13.68;4.75;;;19.70;99.90;;;;;;5072724;28;20499;-71
2023/06/26 04:28:53;;;;;;;10.57;4.63;;;19.70;99.90;;;;;;5071955;28;20394;-71
2023/06/26 04:31:19;;;;;;;15.10;4.85;;;19.80;99.90;;;;;;5071148;28;20036;-71
2023/06/26 04:33:44;;;;;;;12.10;4.57;;;19.80;99.90;;;;;;5072391;28;20031;-71
2023/06/26 04:36:11;;;;;;;16.45;4.90;;;19.80;99.90;;;;;;5071948;28;20032;-71
2023/06/26 04:38:36;;;;;;;13.18;4.38;;;19.90;99.90;;;;;;5072643;28;20029;-71
2023/06/26 04:41:02;;;;;;;12.88;5.03;;;19.90;99.90;;;;;;5071788;28;20398;-71
2023/06/26 04:43:28;;;;;;;16.35;4.05;;;19.90;99.90;;;;;;5072326;28;20024;-71
2023/06/26 04:45:53;;;;;;;14.23;4.28;;;19.90;99.90;;;;;;5071817;28;20024;-71
2023/06/26 04:48:19;;;;;;;15.05;4.07;;;20.00;99.90;;;;;;5072150;28;20021;-71
2023/06/26 04:50:52;;;;;;;11.68;3.88;;;20.00;99.90;;;;;;5072008;28;20032;-71
2023/06/26 04:53:18;;;;;;;15.70;5.18;;;20.10;99.90;;;;;;5072337;28;20056;-71
2023/06/26 04:55:43;;;;;;;13.15;4.80;;;20.10;99.90;;;;;;5073032;28;20102;-71
2023/06/26 04:58:09;;;;;;;12.27;4.25;;;20.30;99.90;;;;;;5082451;28;20515;-71
2023/06/26 05:00:35;;;;;;;17.65;5.43;;;20.50;99.90;;;;;;5074442;28;20436;-71
2023/06/26 05:03:01;;;;;;;10.95;3.50;;;20.70;99.90;;;;;;5071331;28;20101;-71
2023/06/26 05:05:28;;;;;;;17.17;4.15;;;20.90;99.90;;;;;;5072065;28;20020;-71
2023/06/26 05:07:56;;;;;;;12.80;3.88;;;21.10;99.90;;;;;;5071934;28;20025;-72
2023/06/26 05:10:22;;;;;;;12.00;3.42;;;21.30;99.90;;;;;;5071563;28;20498;-72
2023/06/26 05:12:48;;;;;;;12.63;3.35;;;21.50;99.90;;;;;;5056461;28;20033;-72
2023/06/26 05:15:13;;;;;;;13.75;3.15;;;21.70;99.90;;;;;;5051830;28;20025;-71
2023/06/26 05:17:39;;;;;;;15.77;5.00;;;21.70;99.90;;;;;;5052183;28;20538;-72
2023/06/26 05:20:05;;;;;;;13.82;3.85;;;21.80;99.90;;;;;;5061940;28;20020;-71
2023/06/26 05:22:32;;;;;;;13.10;4.00;;;21.80;99.90;;;;;;5071094;28;20025;-71
2023/06/26 05:25:00;;;;;;;12.65;3.65;;;21.90;99.90;;;;;;5070957;28;20536;-71
2023/06/26 05:27:26;;;;;;;11.57;3.50;;;22.30;99.90;;;;;;5071442;28;20104;-72
2023/06/26 05:29:52;;;;;;;6.18;2.33;;;22.50;99.90;;;;;;5071471;28;20052;-71
2023/06/26 05:32:18;;;;;;;12.60;2.95;;;22.40;99.90;;;;;;5071163;28;20492;-71
2023/06/26 05:34:48;;;;;;;10.48;2.90;;;22.30;99.90;;;;;;5071583;28;20421;-71
2023/06/26 05:37:19;;;;;;;16.17;2.88;;;22.10;99.90;;;;;;5071499;28;20428;-71
2023/06/26 05:39:45;;;;;;;11.63;3.03;;;21.90;99.90;;;;;;5071353;28;20394;-71
2023/06/26 05:42:11;;;;;;;8.30;2.80;;;21.90;99.90;;;;;;5071030;28;20036;-72
2023/06/26 05:44:37;;;;;;;10.93;2.83;;;22.00;99.90;;;;;;5071345;28;20028;-71
2023/06/26 05:47:03;;;;;;;9.20;2.50;;;22.10;99.90;;;;;;5070557;28;20028;-70
2023/06/26 05:49:28;;;;;;;5.85;2.13;;;22.30;99.90;;;;;;5070970;28;20382;-70
2023/06/26 05:51:54;;;;;;;10.68;2.75;;;22.30;99.90;;;;;;5070759;28;20126;-70
2023/06/26 05:54:20;;;;;;;9.10;1.88;;;22.40;99.90;;;;;;5071086;28;20024;-70
2023/06/26 05:56:47;;;;;;;7.97;2.05;;;22.40;99.90;;;;;;5071000;28;20024;-70
2023/06/26 05:59:15;;;;;;;8.35;2.10;;;22.30;99.90;;;;;;5071255;28;20020;-70
2023/06/26 06:01:41;;;;;;;8.30;2.63;;;22.20;99.90;;;;;;5070968;28;20052;-70
2023/06/26 06:04:06;;;;;;;5.93;2.10;;;22.10;99.90;;;;;;5070889;28;20072;-70
2023/06/26 06:06:32;;;;;;;8.02;1.98;;;22.00;99.90;;;;;;5070862;28;20100;-70
2023/06/26 06:08:57;;;;;;;8.68;2.00;;;21.90;99.90;;;;;;5070811;28;20051;-70
2023/06/26 06:11:23;;;;;;;10.32;2.55;;;21.80;99.90;;;;;;5055570;28;20509;-70
2023/06/26 06:13:51;;;;;;;13.02;2.03;;;21.70;99.90;;;;;;5050773;28;20104;-71
2023/06/26 06:16:17;;;;;;;6.38;1.75;;;21.60;99.90;;;;;;5051105;28;20024;-70
2023/06/26 06:18:42;;;;;;;9.35;2.13;;;21.50;99.90;;;;;;5051030;28;20056;-70
2023/06/26 06:21:08;;;;;;;10.30;1.75;;;21.60;99.90;;;;;;5050715;28;20479;-71
2023/06/26 06:23:33;;;;;;;10.65;2.03;;;21.60;99.90;;;;;;5050999;28;20052;-70
2023/06/26 06:25:59;;;;;;;5.22;1.63;;;21.60;99.90;;;;;;5050537;28;20033;-71
2023/06/26 06:28:24;;;;;;;5.93;1.60;;;21.70;99.90;;;;;;5050655;28;20045;-70
2023/06/26 06:30:50;;;;;;;5.38;1.80;;;21.70;99.90;;;;;;5055567;28;20032;-71
2023/06/26 06:33:15;;;;;;;6.47;1.55;;;21.80;99.90;;;;;;5070539;28;20021;-70
2023/06/26 06:35:41;;;;;;;8.32;2.40;;;21.80;99.90;;;;;;5071682;28;20032;-71
2023/06/26 06:38:06;;;;;;;4.47;1.73;;;21.90;99.90;;;;;;5073152;28;20466;-70
2023/06/26 06:40:32;;;;;;;5.63;2.05;;;22.00;99.90;;;;;;5074243;28;20036;-71
2023/06/26 06:42:57;;;;;;;9.18;1.90;;;22.20;99.90;;;;;;5074112;28;20028;-71
2023/06/26 06:45:23;;;;;;;7.50;1.73;;;22.40;99.90;;;;;;5074239;28;20040;-70
2023/06/26 06:47:48;;;;;;;9.82;1.80;;;22.40;99.90;;;;;;5074146;28;20058;-71
2023/06/26 06:50:15;;;;;;;5.63;1.45;;;22.50;99.90;;;;;;5074413;28;20047;-71
2023/06/26 06:52:43;;;;;;;4.55;1.40;;;22.50;99.90;;;;;;5074417;28;20036;-71
2023/06/26 06:55:08;;;;;;;6.57;1.80;;;22.60;99.90;;;;;;5073576;28;20059;-71
2023/06/26 06:57:37;;;;;;;5.30;1.92;;;22.60;99.90;;;;;;5074542;28;20052;-71
2023/06/26 07:00:08;;;;;;;9.73;2.00;;;22.60;99.90;;;;;;5073997;28;20379;-71
2023/06/26 07:02:38;;;;;;;7.05;1.63;;;22.40;99.90;;;;;;5074089;28;20048;-71
2023/06/26 07:05:04;;;;;;;5.85;1.55;;;22.20;99.90;;;;;;5073451;28;20543;-71
2023/06/26 07:07:31;;;;;;;8.10;1.63;;;22.10;99.90;;;;;;5073855;28;20027;-71
2023/06/26 07:10:03;;;;;;;5.95;1.45;;;22.10;99.90;;;;;;5058538;28;20391;-71
2023/06/26 07:12:28;;;;;;;6.57;1.92;;;22.10;99.90;;;;;;5072646;28;20032;-71
2023/06/26 07:14:56;;;;;;;8.80;1.30;;;22.10;99.90;;;;;;5073973;28;20079;-71
2023/06/26 07:17:21;;;;;;;7.85;2.10;;;22.10;99.90;;;;;;5073647;28;20028;-71
2023/06/26 07:19:47;;;;;;;4.85;1.73;;;22.10;99.90;;;;;;5074067;28;20462;-70
2023/06/26 07:22:13;;;;;;;5.22;1.75;;;22.10;99.90;;;;;;5073490;28;20043;-71
2023/06/26 07:24:38;;;;;;;9.05;1.90;;;22.30;99.90;;;;;;5073636;28;20028;-71
2023/06/26 07:27:04;;;;;;;6.10;1.60;;;22.60;99.90;;;;;;5073188;28;20025;-70
2023/06/26 07:29:30;;;;;;;4.88;1.75;;;22.60;99.90;;;;;;5073835;28;20033;-71
2023/06/26 07:31:55;;;;;;;5.53;1.35;;;22.50;99.90;;;;;;5073170;28;20089;-71
2023/06/26 07:34:21;;;;;;;6.20;1.80;;;22.30;99.90;;;;;;5073825;28;20100;-72
2023/06/26 07:36:46;;;;;;;4.18;1.42;;;22.20;99.90;;;;;;5073358;28;20036;-71
2023/06/26 07:39:12;;;;;;;6.68;1.70;;;22.30;99.90;;;;;;5072873;28;20021;-70
2023/06/26 07:41:37;;;;;;;7.38;1.70;;;22.30;99.90;;;;;;5073568;28;20090;-70
2023/06/26 07:44:03;;;;;;;7.70;1.67;;;22.40;99.90;;;;;;5073060;28;20029;-70
2023/06/26 07:46:28;;;;;;;6.65;1.67;;;22.30;99.90;;;;;;5072992;28;20119;-70
2023/06/26 07:48:54;;;;;;;8.30;2.10;;;22.20;99.90;;;;;;5072807;28;20047;-70
2023/06/26 07:51:21;;;;;;;4.80;1.80;;;22.30;99.90;;;;;;5073449;28;20403;-70
2023/06/26 07:53:47;;;;;;;7.60;1.70;;;22.40;99.90;;;;;;5072968;28;20029;-70
2023/06/26 07:56:12;;;;;;;2.97;1.30;;;22.70;99.90;;;;;;5072675;28;20089;-70
2023/06/26 07:58:38;;;;;;;7.15;1.65;;;22.80;99.90;;;;;;5073589;28;20025;-70
2023/06/26 08:01:03;;;;;;;4.97;1.67;;;22.90;99.90;;;;;;5072348;28;20102;-70
2023/06/26 08:03:29;;;;;;;3.38;1.35;;;23.00;99.90;;;;;;5073050;28;20064;-70
2023/06/26 08:05:54;;;;;;;4.68;1.50;;;22.90;99.90;;;;;;5072120;28;20021;-70
2023/06/26 08:08:20;;;;;;;3.38;1.50;;;22.90;99.90;;;;;;5059463;28;20033;-70
2023/06/26 08:10:46;;;;;;;7.53;2.00;;;23.00;99.90;;;;;;5052835;28;20103;-70
2023/06/26 08:13:11;;;;;;;3.90;2.13;;;23.10;99.90;;;;;;5060954;28;20025;-70
2023/06/26 08:15:37;;;;;;;6.55;2.50;;;22.90;99.90;;;;;;5072623;28;20444;-70
2023/06/26 08:18:02;;;;;;;5.95;1.48;;;22.70;99.90;;;;;;5072466;28;20020;-70
2023/06/26 08:20:28;;;;;;;8.00;2.75;;;22.50;99.90;;;;;;5072303;28;20020;-70
2023/06/26 08:22:54;;;;;;;7.47;1.90;;;22.50;99.90;;;;;;5072072;28;20023;-70
2023/06/26 08:25:20;;;;;;;4.00;1.52;;;22.60;99.90;;;;;;5072474;28;20048;-70
2023/06/26 08:27:46;;;;;;;5.80;1.63;;;22.70;99.90;;;;;;5071134;28;20016;-70
2023/06/26 08:30:11;;;;;;;4.40;1.80;;;22.60;99.90;;;;;;5070772;28;20036;-70
2023/06/26 08:32:37;;;;;;;8.38;1.70;;;22.50;99.90;;;;;;5072384;28;20501;-70
2023/06/26 08:35:04;;;;;;;5.38;1.63;;;22.40;99.90;;;;;;5072040;28;20389;-70
2023/06/26 08:37:32;;;;;;;6.75;1.40;;;22.30;99.90;;;;;;5072110;28;20024;-70
2023/06/26 08:39:59;;;;;;;4.53;1.17;;;22.30;99.90;;;;;;5071447;28;20020;-71
2023/06/26 08:42:24;;;;;;;6.80;1.40;;;22.40;99.90;;;;;;5071515;28;20097;-70
2023/06/26 08:44:50;;;;;;;6.00;1.13;;;22.60;99.90;;;;;;5071490;28;20032;-70
2023/06/26 08:47:15;;;;;;;3.15;1.00;;;22.70;99.90;;;;;;5070911;28;20028;-70
2023/06/26 08:49:53;;;;;;;3.13;0.50;;;22.70;99.90;;;;;;5072005;28;20107;-70
2023/06/26 08:52:29;;;;;;;2.90;0.57;;;22.80;99.90;;;;;;5071545;28;20462;-70
2023/06/26 08:54:58;;;;;;;2.80;0.50;;;23.00;99.90;;;;;;5071514;28;20081;-70
2023/06/26 08:57:25;;;;;;;5.18;0.60;;;23.10;99.90;;;;;;5071869;28;20028;-70
2023/06/26 08:59:51;;;;;;;3.35;0.47;;;23.20;99.90;;;;;;5070940;28;20025;-70
2023/06/26 09:02:17;;;;;;;3.28;0.60;;;23.20;98.80;;;;;;5071509;28;20410;-70
2023/06/26 09:04:42;;;;;;;3.22;0.40;;;23.10;98.40;;;;;;5070700;28;20078;-70
2023/06/26 09:07:08;;;;;;;1.80;0.50;;;23.10;98.30;;;;;;5057497;28;20033;-70
2023/06/26 09:09:34;;;;;;;2.20;0.40;;;23.10;98.20;;;;;;5063620;28;20025;-70
2023/06/26 09:12:03;;;;;;;2.33;0.40;;;23.20;98.10;;;;;;5070985;28;20039;-70
2023/06/26 09:14:29;;;;;;;4.88;0.60;;;23.30;97.50;;;;;;5071837;28;20103;-71
2023/06/26 09:16:54;;;;;;;5.05;0.40;;;23.40;96.70;;;;;;5071354;28;20485;-71
2023/06/26 09:19:20;;;;;;;5.03;0.57;;;23.50;96.00;;;;;;5071208;28;20028;-71
2023/06/26 09:21:49;;;;;;;3.63;0.40;;;23.40;94.30;;;;;;5071631;28;20565;-71
2023/06/26 09:24:16;;;;;;;2.15;0.30;;;23.20;93.90;;;;;;5071359;28;20047;-71
2023/06/26 09:26:42;;;;;;;4.10;0.65;;;23.20;94.30;;;;;;5071504;28;20028;-71
2023/06/26 09:29:09;;;;;;;3.22;0.40;;;23.20;94.20;;;;;;5071116;28;21109;-71
2023/06/26 09:31:38;;;;;;;4.68;0.40;;;23.20;93.80;;;;;;5071498;28;20127;-71
2023/06/26 09:34:04;;;;;;;3.17;0.47;;;23.30;93.50;;;;;;5071002;28;20035;-71
2023/06/26 09:36:32;;;;;;;3.80;0.30;;;23.30;92.70;;;;;;5071230;28;20021;-71
2023/06/26 09:39:03;;;;;;;5.53;0.45;;;23.40;92.70;;;;;;5070892;28;20020;-71
2023/06/26 09:41:28;;;;;;;3.60;0.52;;;23.40;93.10;;;;;;5071500;28;20027;-71
2023/06/26 09:43:57;;;;;;;4.03;0.60;;;23.30;92.90;;;;;;5070757;28;20021;-71
2023/06/26 09:46:26;;;;;;;2.88;0.50;;;23.10;92.70;;;;;;5071513;28;20078;-71
2023/06/26 09:49:06;;;;;;;2.35;0.40;;;23.10;93.00;;;;;;5070592;28;20012;-70
2023/06/26 09:51:33;;;;;;;2.42;0.40;;;23.20;92.70;;;;;;5071417;28;20029;-71
2023/06/26 09:53:59;;;;;;;2.50;0.60;;;23.10;92.20;;;;;;5070868;28;20020;-71
2023/06/26 09:56:25;;;;;;;2.42;0.40;;;23.00;92.10;;;;;;5070884;28;20103;-71
2023/06/26 09:58:51;;;;;;;3.28;0.50;;;22.70;92.10;;;;;;5070851;28;20108;-71
2023/06/26 10:01:18;;;;;;;4.93;0.52;;;22.60;92.70;;;;;;5070713;28;20052;-71
2023/06/26 10:03:43;;;;;;;5.05;0.40;;;22.70;93.00;;;;;;5071138;28;20031;-71
2023/06/26 10:06:11;;;;;;;3.60;0.40;;;23.00;92.50;;;;;;5070456;28;20032;-71
2023/06/26 10:08:39;;;;;;;3.25;0.60;;;23.10;92.30;;;;;;5070805;28;20071;-71
2023/06/26 10:11:05;;;;;;;2.70;0.60;;;23.10;92.60;;;;;;5074409;28;20036;-71
2023/06/26 10:13:38;;;;;;;3.97;0.60;;;23.00;92.60;;;;;;5075175;28;20055;-71
2023/06/26 10:16:07;;;;;;;5.03;0.50;;;22.90;93.00;;;;;;5074828;28;20037;-70
2023/06/26 10:18:36;;;;;;;6.65;0.50;;;22.90;93.10;;;;;;5074906;28;20109;-70
2023/06/26 10:21:03;;;;;;;5.32;0.43;;;23.00;93.30;;;;;;5074595;28;20021;-71
2023/06/26 10:23:30;;;;;;;3.13;0.50;;;23.20;93.10;;;;;;5074838;28;20039;-71
2023/06/26 10:25:57;;;;;;;4.95;0.60;;;23.30;92.70;;;;;;5074594;28;20029;-71
2023/06/26 10:28:24;;;;;;;3.95;0.52;;;23.40;92.70;;;;;;5074494;28;20020;-71
2023/06/26 10:30:51;;;;;;;6.45;0.60;;;23.30;92.80;;;;;;5074597;28;20033;-71
2023/06/26 10:33:18;;;;;;;4.25;0.50;;;23.40;92.80;;;;;;5074853;28;20025;-71
2023/06/26 10:35:44;;;;;;;4.40;0.57;;;23.70;92.30;;;;;;5074269;28;20462;-71
2023/06/26 10:38:10;;;;;;;1.60;0.40;;;23.70;92.20;;;;;;5074296;28;20028;-71
2023/06/26 10:40:41;;;;;;;5.28;0.40;;;23.60;92.00;;;;;;5073039;28;20538;-71
2023/06/26 10:43:08;;;;;;;5.32;0.55;;;23.30;91.70;;;;;;5073943;28;20027;-71
2023/06/26 10:45:35;;;;;;;2.85;0.40;;;23.30;91.40;;;;;;5074790;28;20035;-71
2023/06/26 10:48:01;;;;;;;3.67;0.60;;;23.30;91.70;;;;;;5074077;28;20039;-71
2023/06/26 10:50:28;;;;;;;3.78;0.70;;;23.50;91.80;;;;;;5074670;28;20025;-71
2023/06/26 10:53:21;;;;;;;3.97;0.50;;;23.60;91.50;;;;;;5073839;28;20119;-71
2023/06/26 10:56:05;;;;;;;5.07;0.80;;;23.70;91.80;;;;;;5074130;28;20039;-71
2023/06/26 10:58:41;;;;;;;3.22;0.70;;;23.80;91.40;;;;;;5074470;28;20390;-71
2023/06/26 11:01:26;;;;;;;3.08;0.65;;;24.00;90.50;;;;;;5073638;28;20041;-71
2023/06/26 11:03:58;;;;;;;5.18;0.90;;;23.80;88.70;;;;;;5072497;28;20031;-71
2023/06/26 11:06:23;;;;;;;3.58;0.60;;;23.50;89.30;;;;;;5074074;28;20025;-71
2023/06/26 11:09:10;;;;;;;4.45;0.60;;;23.40;90.00;;;;;;5073559;28;20432;-70
2023/06/26 11:11:51;;;;;;;3.65;0.47;;;23.40;90.40;;;;;;5053999;28;20413;-71
2023/06/26 11:14:23;;;;;;;3.33;0.40;;;23.60;88.40;;;;;;5053883;28;20036;-71
2023/06/26 11:16:49;;;;;;;2.78;0.40;;;23.70;88.00;;;;;;5073286;28;20100;-72
2023/06/26 11:19:17;;;;;;;2.83;0.47;;;24.00;87.20;;;;;;5073853;28;20430;-71
2023/06/26 11:21:43;;;;;;;4.32;0.45;;;24.00;86.30;;;;;;5073191;28;20104;-71
2023/06/26 11:24:09;;;;;;;6.20;0.60;;;23.90;84.90;;;;;;5073351;28;20139;-71
2023/06/26 11:26:42;;;;;;;2.80;0.30;;;23.80;84.50;;;;;;5073755;28;20096;-71
2023/06/26 11:29:09;;;;;;;2.42;0.93;;;23.70;84.50;;;;;;5072581;28;20025;-70
2023/06/26 11:31:40;;;;;;;3.28;0.40;;;23.90;85.60;;;;;;5073916;28;20060;-71
2023/06/26 11:34:11;;;;;;;5.38;0.70;;;24.00;84.20;;;;;;5072977;28;20100;-71
2023/06/26 11:36:37;;;;;;;3.90;0.50;;;24.00;83.80;;;;;;5073280;28;20029;-71
2023/06/26 11:39:06;;;;;;;2.17;0.50;;;23.80;82.60;;;;;;5072573;28;20394;-71
2023/06/26 11:41:33;;;;;;;3.10;0.50;;;23.70;83.20;;;;;;5073561;28;20029;-71
2023/06/26 11:44:09;;;;;;;3.67;0.40;;;23.60;83.80;;;;;;5072726;28;20024;-71
2023/06/26 11:46:36;;;;;;;3.60;0.57;;;23.60;84.20;;;;;;5073277;28;20486;-71
2023/06/26 11:49:05;;;;;;;4.15;0.50;;;23.60;84.40;;;;;;5073089;28;20033;-71
2023/06/26 11:51:31;;;;;;;2.50;0.50;;;23.50;85.40;;;;;;5073194;28;20078;-71
2023/06/26 11:53:56;;;;;;;3.50;0.60;;;23.40;85.90;;;;;;5073151;28;20409;-70
2023/06/26 11:56:22;;;;;;;6.65;0.70;;;23.30;86.20;;;;;;5072699;28;20103;-71
2023/06/26 11:59:01;;;;;;;2.28;0.88;;;23.30;84.90;;;;;;5073422;28;20023;-70
2023/06/26 12:01:40;;;;;;;3.13;0.65;;;23.60;85.20;;;;;;5073023;28;20041;-71
2023/06/26 12:04:08;;;;;;;2.38;0.60;;;23.70;84.40;;;;;;5072531;28;20032;-71
2023/06/26 12:06:38;;;;;;;2.47;0.40;;;23.80;84.30;;;;;;5056324;28;20530;-71
2023/06/26 12:09:09;;;;;;;3.80;0.50;;;23.90;84.10;;;;;;5072676;28;20082;-71
2023/06/26 12:11:36;;;;;;;3.33;0.85;;;23.90;83.90;;;;;;5072952;28;20090;-71
2023/06/26 12:14:02;;;;;;;2.60;0.40;;;23.90;83.50;;;;;;5073188;28;20071;-71
2023/06/26 12:16:29;;;;;;;3.63;0.50;;;23.70;82.90;;;;;;5072596;28;20032;-71
2023/06/26 12:19:02;;;;;;;9.50;0.60;;;23.40;81.80;;;;;;5072429;28;20025;-71
2023/06/26 12:21:46;;;;;;;3.75;0.43;;;23.40;82.10;;;;;;5072859;28;20052;-70
2023/06/26 12:24:19;;;;;;;5.85;0.60;;;23.30;81.10;;;;;;5072743;28;20019;-71
2023/06/26 12:26:49;;;;;;;8.43;0.47;;;23.40;81.50;;;;;;5072714;28;20042;-71
2023/06/26 12:29:18;;;;;;;2.38;0.52;;;23.20;79.60;;;;;;5057325;28;20036;-71
2023/06/26 12:31:48;;;;;;;8.27;0.40;;;23.00;79.90;;;;;;5052684;28;20044;-71
2023/06/26 12:34:18;;;;;;;1.88;0.30;;;23.10;80.50;;;;;;5066034;28;20017;-71
2023/06/26 12:36:51;;;;;;;3.72;0.32;;;23.30;80.40;;;;;;5052625;28;20532;-71
2023/06/26 12:39:18;;;;;;;4.00;0.50;;;23.50;80.20;;;;;;5053308;28;20028;-71
2023/06/26 12:41:55;;;;;;;3.42;0.32;;;23.40;78.30;;;;;;5072395;28;20030;-71
2023/06/26 12:44:29;;;;;;;2.90;0.50;;;23.40;78.70;;;;;;5071758;28;20478;-71